Nibulon 2 — UUAT3 — position and weather

sailwx.info

Track history (hours):
 
Tides and Currents Weather Stations Pressure Air Temp Water Temp Dewpoint Dewpoint Depression Visibility Wind Speed Wind Dir Waves Ship Positions

Nibulon 2

Last reported at 2017-Dec-10 10:53 UTC. Time now 2017-Dec-13 15:12 UTC.
Position N 47°37' E 035°03'.

Length 38 m; draft 2.6 m.

Type: Towing. MMSI: 272651000.

Date/timePositionNaut miles runAvg speedWind from/ knotsBaromVisibWave heightAir tempDewpointWater temp
2017-Dec-10 10:53N 47°37' E 035°03'0 0.0
2017-Dec-10 10:30N 47°37' E 035°03'0 0.2
2017-Dec-10 10:00N 47°37' E 035°03'0 0.1
2017-Dec-10 09:31N 47°37' E 035°03'0 0.0
2017-Dec-10 06:10N 47°37' E 035°03'0 0.0
2017-Dec-10 05:59N 47°37' E 035°03'0 0.0
2017-Dec-10 05:29N 47°37' E 035°03'0 0.0
2017-Dec-10 04:57N 47°37' E 035°03'0 0.0
2017-Dec-09 22:05N 47°37' E 035°03'0 0.0
2017-Dec-09 21:55N 47°37' E 035°03'0 0.0
2017-Dec-09 21:23N 47°37' E 035°03'1 1.4
2017-Dec-09 21:00N 47°37' E 035°03'2 4.7
2017-Dec-09 20:30N 47°34' E 035°02'7 4.6
2017-Dec-09 18:57N 47°33' E 034°52'3 4.7
2017-Dec-09 18:23N 47°31' E 034°48'28 4.3
2017-Dec-09 11:54N 47°27' E 034°07'92 2.7
2017-Dec-08 02:04N 46°33' E 032°18'0 4.3
2017-Dec-08 02:00N 46°33' E 032°18'7 4.6
2017-Dec-08 00:34N 46°32' E 032°08'0 4.8
2017-Dec-08 00:30N 46°32' E 032°08'2 4.7
2017-Dec-07 23:59N 46°32' E 032°04'2 4.8
2017-Dec-07 23:30N 46°32' E 032°01'2 4.9
2017-Dec-07 23:01N 46°33' E 031°58'3 5.0
2017-Dec-07 22:30N 46°34' E 031°55'2 4.9
2017-Dec-07 22:00N 46°35' E 031°51'2 4.9
2017-Dec-07 21:30N 46°36' E 031°48'2 4.9
2017-Dec-07 21:00N 46°35' E 031°44'7 3.7
2017-Dec-07 19:14N 46°36' E 031°35'2 0.1
2017-Dec-07 07:42N 46°35' E 031°33'1 4.7
2017-Dec-07 07:30N 46°35' E 031°34'  
Track history (hours):
 
Tides and Currents Weather Stations Pressure Air Temp Water Temp Dewpoint Dewpoint Depression Visibility Wind Speed Wind Dir Waves Ship Positions

Nibulon 2

Last reported at 2017-Dec-10 10:53 UTC. Time now 2017-Dec-13 15:12 UTC.
Position N 47°37' E 035°03'.

Length 38 m; draft 2.6 m.

Type: Towing. MMSI: 272651000.

Date/timePositionNaut miles runAvg speedWind from/ knotsBaromVisibWave heightAir tempDewpointWater temp
2017-Dec-10 10:53N 47°37' E 035°03'0 0.0
2017-Dec-10 10:30N 47°37' E 035°03'0 0.2
2017-Dec-10 10:00N 47°37' E 035°03'0 0.1
2017-Dec-10 09:31N 47°37' E 035°03'0 0.0
2017-Dec-10 06:10N 47°37' E 035°03'0 0.0
2017-Dec-10 05:59N 47°37' E 035°03'0 0.0
2017-Dec-10 05:29N 47°37' E 035°03'0 0.0
2017-Dec-10 04:57N 47°37' E 035°03'0 0.0
2017-Dec-09 22:05N 47°37' E 035°03'0 0.0
2017-Dec-09 21:55N 47°37' E 035°03'0 0.0
2017-Dec-09 21:23N 47°37' E 035°03'1 1.4
2017-Dec-09 21:00N 47°37' E 035°03'2 4.7
2017-Dec-09 20:30N 47°34' E 035°02'7 4.6
2017-Dec-09 18:57N 47°33' E 034°52'3 4.7
2017-Dec-09 18:23N 47°31' E 034°48'28 4.3
2017-Dec-09 11:54N 47°27' E 034°07'92 2.7
2017-Dec-08 02:04N 46°33' E 032°18'0 4.3
2017-Dec-08 02:00N 46°33' E 032°18'7 4.6
2017-Dec-08 00:34N 46°32' E 032°08'0 4.8
2017-Dec-08 00:30N 46°32' E 032°08'2 4.7
2017-Dec-07 23:59N 46°32' E 032°04'2 4.8
2017-Dec-07 23:30N 46°32' E 032°01'2 4.9
2017-Dec-07 23:01N 46°33' E 031°58'3 5.0
2017-Dec-07 22:30N 46°34' E 031°55'2 4.9
2017-Dec-07 22:00N 46°35' E 031°51'2 4.9
2017-Dec-07 21:30N 46°36' E 031°48'2 4.9
2017-Dec-07 21:00N 46°35' E 031°44'7 3.7
2017-Dec-07 19:14N 46°36' E 031°35'2 0.1
2017-Dec-07 07:42N 46°35' E 031°33'1 4.7
2017-Dec-07 07:30N 46°35' E 031°34'  

Dump ship's entire track history